sensor_id;sensor_type;location;lat;lon;timestamp;temperature;humidity
15355;DHT22;7777;52.254;9.618;2022-12-29T00:00:00;9.10;99.90
15355;DHT22;7777;52.254;9.618;2022-12-29T00:02:26;9.10;99.90
15355;DHT22;7777;52.254;9.618;2022-12-29T00:04:52;9.20;99.90
15355;DHT22;7777;52.254;9.618;2022-12-29T00:07:18;9.20;99.90
15355;DHT22;7777;52.254;9.618;2022-12-29T00:09:43;9.20;99.90
15355;DHT22;7777;52.254;9.618;2022-12-29T00:12:09;9.30;99.90
15355;DHT22;7777;52.254;9.618;2022-12-29T00:14:35;9.30;99.90
15355;DHT22;7777;52.254;9.618;2022-12-29T00:17:19;9.30;99.90
15355;DHT22;7777;52.254;9.618;2022-12-29T00:19:45;9.40;99.90
15355;DHT22;7777;52.254;9.618;2022-12-29T00:22:29;9.40;99.90
15355;DHT22;7777;52.254;9.618;2022-12-29T00:25:13;9.40;99.90
15355;DHT22;7777;52.254;9.618;2022-12-29T00:27:58;9.50;99.90
15355;DHT22;7777;52.254;9.618;2022-12-29T00:30:42;9.50;99.90
15355;DHT22;7777;52.254;9.618;2022-12-29T00:33:30;9.50;99.90
15355;DHT22;7777;52.254;9.618;2022-12-29T00:36:28;9.50;99.90
15355;DHT22;7777;52.254;9.618;2022-12-29T00:39:00;9.60;99.90
15355;DHT22;7777;52.254;9.618;2022-12-29T00:41:50;9.60;99.90
15355;DHT22;7777;52.254;9.618;2022-12-29T00:44:34;9.60;99.90
15355;DHT22;7777;52.254;9.618;2022-12-29T00:47:00;9.70;99.90
15355;DHT22;7777;52.254;9.618;2022-12-29T00:49:30;9.70;99.90
15355;DHT22;7777;52.254;9.618;2022-12-29T00:52:03;9.70;99.90
15355;DHT22;7777;52.254;9.618;2022-12-29T00:54:33;9.70;99.90
15355;DHT22;7777;52.254;9.618;2022-12-29T00:57:01;9.70;99.90
15355;DHT22;7777;52.254;9.618;2022-12-29T00:59:28;9.70;99.90
15355;DHT22;7777;52.254;9.618;2022-12-29T01:01:54;9.80;99.90
15355;DHT22;7777;52.254;9.618;2022-12-29T01:04:22;9.80;99.90
15355;DHT22;7777;52.254;9.618;2022-12-29T01:06:50;9.80;99.90
15355;DHT22;7777;52.254;9.618;2022-12-29T01:09:17;9.80;99.90
15355;DHT22;7777;52.254;9.618;2022-12-29T01:12:02;9.80;99.90
15355;DHT22;7777;52.254;9.618;2022-12-29T01:14:28;9.80;99.90
15355;DHT22;7777;52.254;9.618;2022-12-29T01:16:55;9.80;99.90
15355;DHT22;7777;52.254;9.618;2022-12-29T01:19:22;9.80;99.90
15355;DHT22;7777;52.254;9.618;2022-12-29T01:21:48;9.80;99.90
15355;DHT22;7777;52.254;9.618;2022-12-29T01:24:16;9.90;99.90
15355;DHT22;7777;52.254;9.618;2022-12-29T01:26:43;9.90;99.90
15355;DHT22;7777;52.254;9.618;2022-12-29T01:29:09;9.90;99.90
15355;DHT22;7777;52.254;9.618;2022-12-29T01:31:34;9.90;99.90
15355;DHT22;7777;52.254;9.618;2022-12-29T01:34:00;9.90;99.90
15355;DHT22;7777;52.254;9.618;2022-12-29T01:36:26;9.90;99.90
15355;DHT22;7777;52.254;9.618;2022-12-29T01:38:52;9.90;99.90
15355;DHT22;7777;52.254;9.618;2022-12-29T01:41:18;9.90;99.90
15355;DHT22;7777;52.254;9.618;2022-12-29T01:43:46;10.00;99.90
15355;DHT22;7777;52.254;9.618;2022-12-29T01:46:36;10.00;99.90
15355;DHT22;7777;52.254;9.618;2022-12-29T01:49:15;10.00;99.90
15355;DHT22;7777;52.254;9.618;2022-12-29T01:51:57;10.00;99.90
15355;DHT22;7777;52.254;9.618;2022-12-29T01:54:51;10.00;99.90
15355;DHT22;7777;52.254;9.618;2022-12-29T01:57:21;10.00;99.90
15355;DHT22;7777;52.254;9.618;2022-12-29T01:59:59;10.00;99.90
15355;DHT22;7777;52.254;9.618;2022-12-29T02:02:29;10.10;99.90
15355;DHT22;7777;52.254;9.618;2022-12-29T02:04:56;10.10;99.90
15355;DHT22;7777;52.254;9.618;2022-12-29T02:07:24;10.10;99.90
15355;DHT22;7777;52.254;9.618;2022-12-29T02:09:53;10.10;99.90
15355;DHT22;7777;52.254;9.618;2022-12-29T02:12:20;10.10;99.90
15355;DHT22;7777;52.254;9.618;2022-12-29T02:14:49;10.10;99.90
15355;DHT22;7777;52.254;9.618;2022-12-29T02:17:44;10.10;99.90
15355;DHT22;7777;52.254;9.618;2022-12-29T02:29:08;10.30;99.90
15355;DHT22;7777;52.254;9.618;2022-12-29T02:37:37;10.40;99.90
15355;DHT22;7777;52.254;9.618;2022-12-29T02:40:46;10.30;99.90
15355;DHT22;7777;52.254;9.618;2022-12-29T02:46:22;10.40;99.90
15355;DHT22;7777;52.254;9.618;2022-12-29T02:49:09;10.40;99.90
15355;DHT22;7777;52.254;9.618;2022-12-29T02:51:54;10.40;99.90
15355;DHT22;7777;52.254;9.618;2022-12-29T02:54:23;10.50;99.90
15355;DHT22;7777;52.254;9.618;2022-12-29T02:59:55;10.50;99.90
15355;DHT22;7777;52.254;9.618;2022-12-29T03:02:49;10.50;99.90
15355;DHT22;7777;52.254;9.618;2022-12-29T03:11:04;10.50;99.90
15355;DHT22;7777;52.254;9.618;2022-12-29T03:13:37;10.50;99.90
15355;DHT22;7777;52.254;9.618;2022-12-29T03:16:47;10.60;99.90
15355;DHT22;7777;52.254;9.618;2022-12-29T03:19:25;10.60;99.90
15355;DHT22;7777;52.254;9.618;2022-12-29T03:21:57;10.60;99.90
15355;DHT22;7777;52.254;9.618;2022-12-29T03:24:47;10.60;99.90
15355;DHT22;7777;52.254;9.618;2022-12-29T03:27:29;10.60;99.90
15355;DHT22;7777;52.254;9.618;2022-12-29T03:30:06;10.60;99.90
15355;DHT22;7777;52.254;9.618;2022-12-29T03:32:42;10.60;99.90
15355;DHT22;7777;52.254;9.618;2022-12-29T03:35:13;10.60;99.90
15355;DHT22;7777;52.254;9.618;2022-12-29T03:37:45;10.60;99.90
15355;DHT22;7777;52.254;9.618;2022-12-29T03:40:26;10.60;99.90
15355;DHT22;7777;52.254;9.618;2022-12-29T03:42:53;10.70;99.90
15355;DHT22;7777;52.254;9.618;2022-12-29T03:45:19;10.70;99.90
15355;DHT22;7777;52.254;9.618;2022-12-29T03:47:45;10.70;99.90
15355;DHT22;7777;52.254;9.618;2022-12-29T03:50:12;10.70;99.90
15355;DHT22;7777;52.254;9.618;2022-12-29T03:52:38;10.80;99.90
15355;DHT22;7777;52.254;9.618;2022-12-29T03:55:05;10.80;99.90
15355;DHT22;7777;52.254;9.618;2022-12-29T03:57:31;10.80;99.90
15355;DHT22;7777;52.254;9.618;2022-12-29T03:59:57;10.90;99.90
15355;DHT22;7777;52.254;9.618;2022-12-29T04:02:22;10.80;99.90
15355;DHT22;7777;52.254;9.618;2022-12-29T04:04:49;10.80;99.90
15355;DHT22;7777;52.254;9.618;2022-12-29T04:07:14;10.80;99.90
15355;DHT22;7777;52.254;9.618;2022-12-29T04:09:40;10.90;99.90
15355;DHT22;7777;52.254;9.618;2022-12-29T04:12:06;10.90;99.90
15355;DHT22;7777;52.254;9.618;2022-12-29T04:14:32;10.90;99.90
15355;DHT22;7777;52.254;9.618;2022-12-29T04:16:57;10.90;99.90
15355;DHT22;7777;52.254;9.618;2022-12-29T04:19:23;11.00;99.90
15355;DHT22;7777;52.254;9.618;2022-12-29T04:21:49;11.00;99.90
15355;DHT22;7777;52.254;9.618;2022-12-29T04:24:15;11.00;99.90
15355;DHT22;7777;52.254;9.618;2022-12-29T04:26:41;11.00;99.90
15355;DHT22;7777;52.254;9.618;2022-12-29T04:29:07;11.00;99.90
15355;DHT22;7777;52.254;9.618;2022-12-29T04:31:33;11.00;99.90
15355;DHT22;7777;52.254;9.618;2022-12-29T04:33:58;11.10;99.90
15355;DHT22;7777;52.254;9.618;2022-12-29T04:36:26;11.00;99.90
15355;DHT22;7777;52.254;9.618;2022-12-29T04:38:51;11.10;99.90
15355;DHT22;7777;52.254;9.618;2022-12-29T04:41:17;11.00;99.90
15355;DHT22;7777;52.254;9.618;2022-12-29T04:43:43;11.00;99.90
15355;DHT22;7777;52.254;9.618;2022-12-29T04:46:08;11.10;99.90
15355;DHT22;7777;52.254;9.618;2022-12-29T04:48:34;11.10;99.90
15355;DHT22;7777;52.254;9.618;2022-12-29T04:51:00;11.10;99.90
15355;DHT22;7777;52.254;9.618;2022-12-29T04:53:26;11.10;99.90
15355;DHT22;7777;52.254;9.618;2022-12-29T04:55:52;11.10;99.90
15355;DHT22;7777;52.254;9.618;2022-12-29T04:58:19;11.10;99.90
15355;DHT22;7777;52.254;9.618;2022-12-29T05:00:45;11.10;99.90
15355;DHT22;7777;52.254;9.618;2022-12-29T05:03:11;11.10;99.90
15355;DHT22;7777;52.254;9.618;2022-12-29T05:05:36;11.10;99.90
15355;DHT22;7777;52.254;9.618;2022-12-29T05:08:02;11.10;99.90
15355;DHT22;7777;52.254;9.618;2022-12-29T05:10:28;11.10;99.90
15355;DHT22;7777;52.254;9.618;2022-12-29T05:12:54;11.10;99.90
15355;DHT22;7777;52.254;9.618;2022-12-29T05:15:20;11.10;99.90
15355;DHT22;7777;52.254;9.618;2022-12-29T05:17:45;11.20;99.90
15355;DHT22;7777;52.254;9.618;2022-12-29T05:20:11;11.20;99.90
15355;DHT22;7777;52.254;9.618;2022-12-29T05:22:37;11.20;99.90
15355;DHT22;7777;52.254;9.618;2022-12-29T05:25:03;11.20;99.90
15355;DHT22;7777;52.254;9.618;2022-12-29T05:27:29;11.20;99.90
15355;DHT22;7777;52.254;9.618;2022-12-29T05:29:55;11.20;99.90
15355;DHT22;7777;52.254;9.618;2022-12-29T05:32:20;11.30;99.90
15355;DHT22;7777;52.254;9.618;2022-12-29T05:34:46;11.30;99.90
15355;DHT22;7777;52.254;9.618;2022-12-29T05:37:12;11.30;99.90
15355;DHT22;7777;52.254;9.618;2022-12-29T05:39:38;11.30;99.90
15355;DHT22;7777;52.254;9.618;2022-12-29T05:42:03;11.30;99.90
15355;DHT22;7777;52.254;9.618;2022-12-29T05:44:29;11.30;99.90
15355;DHT22;7777;52.254;9.618;2022-12-29T05:46:55;11.30;99.90
15355;DHT22;7777;52.254;9.618;2022-12-29T05:49:21;11.30;99.90
15355;DHT22;7777;52.254;9.618;2022-12-29T05:51:46;11.30;99.90
15355;DHT22;7777;52.254;9.618;2022-12-29T05:54:12;11.30;99.90
15355;DHT22;7777;52.254;9.618;2022-12-29T05:56:38;11.20;99.90
15355;DHT22;7777;52.254;9.618;2022-12-29T05:59:03;11.20;99.90
15355;DHT22;7777;52.254;9.618;2022-12-29T06:01:29;11.20;99.90
15355;DHT22;7777;52.254;9.618;2022-12-29T06:03:55;11.20;99.90
15355;DHT22;7777;52.254;9.618;2022-12-29T06:06:21;11.10;99.90
15355;DHT22;7777;52.254;9.618;2022-12-29T06:08:46;11.10;99.90
15355;DHT22;7777;52.254;9.618;2022-12-29T06:11:12;11.10;99.90
15355;DHT22;7777;52.254;9.618;2022-12-29T06:13:38;11.10;99.90
15355;DHT22;7777;52.254;9.618;2022-12-29T06:16:04;11.10;99.90
15355;DHT22;7777;52.254;9.618;2022-12-29T06:18:30;11.10;99.90
15355;DHT22;7777;52.254;9.618;2022-12-29T06:21:03;11.10;99.90
15355;DHT22;7777;52.254;9.618;2022-12-29T06:23:30;11.10;99.90
15355;DHT22;7777;52.254;9.618;2022-12-29T06:25:56;11.00;99.90
15355;DHT22;7777;52.254;9.618;2022-12-29T06:28:23;11.10;99.90
15355;DHT22;7777;52.254;9.618;2022-12-29T06:30:49;11.10;99.90
15355;DHT22;7777;52.254;9.618;2022-12-29T06:33:15;11.10;99.90
15355;DHT22;7777;52.254;9.618;2022-12-29T06:35:42;11.10;99.90
15355;DHT22;7777;52.254;9.618;2022-12-29T06:38:08;11.10;99.90
15355;DHT22;7777;52.254;9.618;2022-12-29T06:40:34;11.10;99.90
15355;DHT22;7777;52.254;9.618;2022-12-29T06:42:59;11.10;99.90
15355;DHT22;7777;52.254;9.618;2022-12-29T06:45:25;11.10;99.90
15355;DHT22;7777;52.254;9.618;2022-12-29T06:47:51;11.10;99.90
15355;DHT22;7777;52.254;9.618;2022-12-29T06:50:17;11.10;99.90
15355;DHT22;7777;52.254;9.618;2022-12-29T06:52:42;11.10;99.90
15355;DHT22;7777;52.254;9.618;2022-12-29T06:55:08;11.20;99.90
15355;DHT22;7777;52.254;9.618;2022-12-29T06:57:34;11.20;99.90
15355;DHT22;7777;52.254;9.618;2022-12-29T07:00:00;11.20;99.90
15355;DHT22;7777;52.254;9.618;2022-12-29T07:02:25;11.20;99.90
15355;DHT22;7777;52.254;9.618;2022-12-29T07:04:52;11.20;99.90
15355;DHT22;7777;52.254;9.618;2022-12-29T07:07:19;11.20;99.90
15355;DHT22;7777;52.254;9.618;2022-12-29T07:09:51;11.30;99.90
15355;DHT22;7777;52.254;9.618;2022-12-29T07:12:17;11.30;99.90
15355;DHT22;7777;52.254;9.618;2022-12-29T07:14:43;11.30;99.90
15355;DHT22;7777;52.254;9.618;2022-12-29T07:17:09;11.30;99.90
15355;DHT22;7777;52.254;9.618;2022-12-29T07:19:35;11.30;99.90
15355;DHT22;7777;52.254;9.618;2022-12-29T07:22:01;11.30;99.90
15355;DHT22;7777;52.254;9.618;2022-12-29T07:24:26;11.30;99.90
15355;DHT22;7777;52.254;9.618;2022-12-29T07:26:52;11.30;99.90
15355;DHT22;7777;52.254;9.618;2022-12-29T07:29:18;11.30;99.90
15355;DHT22;7777;52.254;9.618;2022-12-29T07:31:44;11.30;99.90
15355;DHT22;7777;52.254;9.618;2022-12-29T07:34:10;11.30;99.90
15355;DHT22;7777;52.254;9.618;2022-12-29T07:36:36;11.30;99.90
15355;DHT22;7777;52.254;9.618;2022-12-29T07:39:02;11.30;99.90
15355;DHT22;7777;52.254;9.618;2022-12-29T07:41:29;11.30;99.90
15355;DHT22;7777;52.254;9.618;2022-12-29T07:43:54;11.30;99.90
15355;DHT22;7777;52.254;9.618;2022-12-29T07:46:20;11.30;99.90
15355;DHT22;7777;52.254;9.618;2022-12-29T07:48:46;11.20;99.90
15355;DHT22;7777;52.254;9.618;2022-12-29T07:51:11;11.20;99.90
15355;DHT22;7777;52.254;9.618;2022-12-29T07:53:37;11.20;99.90
15355;DHT22;7777;52.254;9.618;2022-12-29T07:56:05;11.10;99.90
15355;DHT22;7777;52.254;9.618;2022-12-29T07:58:31;11.10;99.90
15355;DHT22;7777;52.254;9.618;2022-12-29T08:00:57;11.10;99.90
15355;DHT22;7777;52.254;9.618;2022-12-29T08:03:23;11.10;99.90
15355;DHT22;7777;52.254;9.618;2022-12-29T08:05:50;11.00;99.90
15355;DHT22;7777;52.254;9.618;2022-12-29T08:08:16;11.00;99.90
15355;DHT22;7777;52.254;9.618;2022-12-29T08:10:41;10.90;99.90
15355;DHT22;7777;52.254;9.618;2022-12-29T08:13:07;10.90;99.90
15355;DHT22;7777;52.254;9.618;2022-12-29T08:15:33;10.90;99.90
15355;DHT22;7777;52.254;9.618;2022-12-29T08:18:15;10.90;99.90
15355;DHT22;7777;52.254;9.618;2022-12-29T08:20:41;10.90;99.90
15355;DHT22;7777;52.254;9.618;2022-12-29T08:23:07;10.80;99.90
15355;DHT22;7777;52.254;9.618;2022-12-29T08:25:32;10.80;99.90
15355;DHT22;7777;52.254;9.618;2022-12-29T08:27:58;10.80;99.90
15355;DHT22;7777;52.254;9.618;2022-12-29T08:30:24;10.70;99.90
15355;DHT22;7777;52.254;9.618;2022-12-29T08:32:50;10.70;99.90
15355;DHT22;7777;52.254;9.618;2022-12-29T08:35:16;10.70;99.90
15355;DHT22;7777;52.254;9.618;2022-12-29T08:37:41;10.60;99.90
15355;DHT22;7777;52.254;9.618;2022-12-29T08:40:08;10.60;99.90
15355;DHT22;7777;52.254;9.618;2022-12-29T08:42:34;10.60;99.90
15355;DHT22;7777;52.254;9.618;2022-12-29T08:45:00;10.50;99.90
15355;DHT22;7777;52.254;9.618;2022-12-29T08:47:26;10.50;99.90
15355;DHT22;7777;52.254;9.618;2022-12-29T08:49:52;10.50;99.90
15355;DHT22;7777;52.254;9.618;2022-12-29T08:52:18;10.50;99.90
15355;DHT22;7777;52.254;9.618;2022-12-29T08:54:44;10.40;99.90
15355;DHT22;7777;52.254;9.618;2022-12-29T08:57:10;10.40;99.90
15355;DHT22;7777;52.254;9.618;2022-12-29T08:59:36;10.40;99.90
15355;DHT22;7777;52.254;9.618;2022-12-29T09:02:02;10.40;99.90
15355;DHT22;7777;52.254;9.618;2022-12-29T09:04:30;10.40;99.90
15355;DHT22;7777;52.254;9.618;2022-12-29T09:06:56;10.40;99.90
15355;DHT22;7777;52.254;9.618;2022-12-29T09:09:23;10.40;99.90
15355;DHT22;7777;52.254;9.618;2022-12-29T09:11:49;10.40;99.90
15355;DHT22;7777;52.254;9.618;2022-12-29T09:14:14;10.40;99.90
15355;DHT22;7777;52.254;9.618;2022-12-29T09:16:40;10.40;99.90
15355;DHT22;7777;52.254;9.618;2022-12-29T09:19:25;10.40;99.90
15355;DHT22;7777;52.254;9.618;2022-12-29T09:21:52;10.40;99.90
15355;DHT22;7777;52.254;9.618;2022-12-29T09:24:18;10.40;99.90
15355;DHT22;7777;52.254;9.618;2022-12-29T09:26:44;10.40;99.90
15355;DHT22;7777;52.254;9.618;2022-12-29T09:29:10;10.40;99.90
15355;DHT22;7777;52.254;9.618;2022-12-29T09:31:36;10.40;99.90
15355;DHT22;7777;52.254;9.618;2022-12-29T09:34:01;10.40;99.90
15355;DHT22;7777;52.254;9.618;2022-12-29T09:36:27;10.40;99.90
15355;DHT22;7777;52.254;9.618;2022-12-29T09:38:53;10.40;99.90
15355;DHT22;7777;52.254;9.618;2022-12-29T09:42:11;10.40;99.90
15355;DHT22;7777;52.254;9.618;2022-12-29T09:47:44;10.40;99.90
15355;DHT22;7777;52.254;9.618;2022-12-29T09:50:28;10.40;99.90
15355;DHT22;7777;52.254;9.618;2022-12-29T09:53:15;10.40;99.90
15355;DHT22;7777;52.254;9.618;2022-12-29T09:55:48;10.40;99.90
15355;DHT22;7777;52.254;9.618;2022-12-29T10:01:46;10.40;99.90
15355;DHT22;7777;52.254;9.618;2022-12-29T10:04:18;10.40;99.90
15355;DHT22;7777;52.254;9.618;2022-12-29T10:07:03;10.40;99.90
15355;DHT22;7777;52.254;9.618;2022-12-29T10:13:36;10.40;99.90
15355;DHT22;7777;52.254;9.618;2022-12-29T10:16:22;10.40;99.90
15355;DHT22;7777;52.254;9.618;2022-12-29T10:24:22;10.40;99.90
15355;DHT22;7777;52.254;9.618;2022-12-29T10:26:51;10.40;99.90
15355;DHT22;7777;52.254;9.618;2022-12-29T10:29:20;10.30;99.90
15355;DHT22;7777;52.254;9.618;2022-12-29T10:32:03;10.40;99.90
15355;DHT22;7777;52.254;9.618;2022-12-29T10:34:54;10.40;99.90
15355;DHT22;7777;52.254;9.618;2022-12-29T10:37:43;10.40;99.90
15355;DHT22;7777;52.254;9.618;2022-12-29T10:43:33;10.50;99.90
15355;DHT22;7777;52.254;9.618;2022-12-29T10:46:07;10.50;99.90
15355;DHT22;7777;52.254;9.618;2022-12-29T10:48:36;10.50;99.90
15355;DHT22;7777;52.254;9.618;2022-12-29T10:51:04;10.60;99.90
15355;DHT22;7777;52.254;9.618;2022-12-29T10:53:44;10.60;99.90
15355;DHT22;7777;52.254;9.618;2022-12-29T10:58:57;10.60;99.90
15355;DHT22;7777;52.254;9.618;2022-12-29T11:01:33;10.60;99.90
15355;DHT22;7777;52.254;9.618;2022-12-29T11:04:51;10.60;99.90
15355;DHT22;7777;52.254;9.618;2022-12-29T11:06:59;10.60;99.90
15355;DHT22;7777;52.254;9.618;2022-12-29T11:09:29;10.60;99.90
15355;DHT22;7777;52.254;9.618;2022-12-29T11:11:57;10.70;99.90
15355;DHT22;7777;52.254;9.618;2022-12-29T11:14:30;10.70;99.90
15355;DHT22;7777;52.254;9.618;2022-12-29T11:17:02;10.70;99.90
15355;DHT22;7777;52.254;9.618;2022-12-29T11:19:31;10.70;99.90
15355;DHT22;7777;52.254;9.618;2022-12-29T11:22:23;10.70;99.90
15355;DHT22;7777;52.254;9.618;2022-12-29T11:24:51;10.70;99.90
15355;DHT22;7777;52.254;9.618;2022-12-29T11:27:20;10.70;99.90
15355;DHT22;7777;52.254;9.618;2022-12-29T11:29:49;10.70;99.90
15355;DHT22;7777;52.254;9.618;2022-12-29T11:32:27;10.80;99.90
15355;DHT22;7777;52.254;9.618;2022-12-29T11:34:58;10.80;99.90
15355;DHT22;7777;52.254;9.618;2022-12-29T11:37:36;10.80;99.90
15355;DHT22;7777;52.254;9.618;2022-12-29T11:40:18;10.80;99.90
15355;DHT22;7777;52.254;9.618;2022-12-29T11:42:52;10.80;99.90
15355;DHT22;7777;52.254;9.618;2022-12-29T11:45:27;10.90;99.90
15355;DHT22;7777;52.254;9.618;2022-12-29T11:48:08;10.90;99.90
15355;DHT22;7777;52.254;9.618;2022-12-29T11:50:40;10.90;99.90
15355;DHT22;7777;52.254;9.618;2022-12-29T11:53:30;11.00;99.90
15355;DHT22;7777;52.254;9.618;2022-12-29T11:56:06;11.00;99.90
15355;DHT22;7777;52.254;9.618;2022-12-29T11:58:36;11.10;99.90
15355;DHT22;7777;52.254;9.618;2022-12-29T12:01:10;11.20;99.90
15355;DHT22;7777;52.254;9.618;2022-12-29T12:03:46;11.20;99.90
15355;DHT22;7777;52.254;9.618;2022-12-29T12:06:19;11.20;99.90
15355;DHT22;7777;52.254;9.618;2022-12-29T12:08:55;11.20;99.90
15355;DHT22;7777;52.254;9.618;2022-12-29T12:11:28;11.20;99.90
15355;DHT22;7777;52.254;9.618;2022-12-29T12:14:19;11.20;99.90
15355;DHT22;7777;52.254;9.618;2022-12-29T12:16:52;11.20;99.90
15355;DHT22;7777;52.254;9.618;2022-12-29T12:19:51;11.20;99.90
15355;DHT22;7777;52.254;9.618;2022-12-29T12:22:35;11.20;99.90
15355;DHT22;7777;52.254;9.618;2022-12-29T12:27:39;11.20;99.90
15355;DHT22;7777;52.254;9.618;2022-12-29T12:30:30;11.20;99.90
15355;DHT22;7777;52.254;9.618;2022-12-29T12:33:29;11.20;99.90
15355;DHT22;7777;52.254;9.618;2022-12-29T12:39:11;11.20;99.90
15355;DHT22;7777;52.254;9.618;2022-12-29T12:44:52;11.20;99.90
15355;DHT22;7777;52.254;9.618;2022-12-29T12:47:39;11.20;99.90
15355;DHT22;7777;52.254;9.618;2022-12-29T12:53:33;11.20;99.90
15355;DHT22;7777;52.254;9.618;2022-12-29T12:59:01;11.20;99.90
15355;DHT22;7777;52.254;9.618;2022-12-29T13:01:46;11.20;99.90
15355;DHT22;7777;52.254;9.618;2022-12-29T13:11:13;11.20;99.90
15355;DHT22;7777;52.254;9.618;2022-12-29T13:19:17;11.30;99.90
15355;DHT22;7777;52.254;9.618;2022-12-29T13:22:21;11.30;99.90
15355;DHT22;7777;52.254;9.618;2022-12-29T13:28:02;11.30;99.90
15355;DHT22;7777;52.254;9.618;2022-12-29T13:30:53;11.30;99.90
15355;DHT22;7777;52.254;9.618;2022-12-29T13:33:36;11.30;99.90
15355;DHT22;7777;52.254;9.618;2022-12-29T13:39:04;11.30;99.90
15355;DHT22;7777;52.254;9.618;2022-12-29T13:41:39;11.30;99.90
15355;DHT22;7777;52.254;9.618;2022-12-29T13:44:09;11.30;99.90
15355;DHT22;7777;52.254;9.618;2022-12-29T13:46:43;11.30;99.90
15355;DHT22;7777;52.254;9.618;2022-12-29T13:49:19;11.40;99.90
15355;DHT22;7777;52.254;9.618;2022-12-29T13:52:12;11.30;99.90
15355;DHT22;7777;52.254;9.618;2022-12-29T13:54:45;11.40;99.90
15355;DHT22;7777;52.254;9.618;2022-12-29T13:57:48;11.40;99.90
15355;DHT22;7777;52.254;9.618;2022-12-29T14:00:27;11.30;99.90
15355;DHT22;7777;52.254;9.618;2022-12-29T14:03:24;11.30;99.90
15355;DHT22;7777;52.254;9.618;2022-12-29T14:06:32;11.30;99.90
15355;DHT22;7777;52.254;9.618;2022-12-29T14:09:04;11.30;99.90
15355;DHT22;7777;52.254;9.618;2022-12-29T14:11:35;11.30;99.90
15355;DHT22;7777;52.254;9.618;2022-12-29T14:14:25;11.30;99.90
15355;DHT22;7777;52.254;9.618;2022-12-29T14:17:10;11.40;99.90
15355;DHT22;7777;52.254;9.618;2022-12-29T14:19:51;11.40;99.90
15355;DHT22;7777;52.254;9.618;2022-12-29T14:22:26;11.40;99.90
15355;DHT22;7777;52.254;9.618;2022-12-29T14:24:53;11.40;99.90
15355;DHT22;7777;52.254;9.618;2022-12-29T14:29:45;11.30;99.90
15355;DHT22;7777;52.254;9.618;2022-12-29T14:34:51;11.30;99.90
15355;DHT22;7777;52.254;9.618;2022-12-29T14:37:28;11.30;99.90
15355;DHT22;7777;52.254;9.618;2022-12-29T14:43:25;11.30;99.90
15355;DHT22;7777;52.254;9.618;2022-12-29T14:45:57;11.20;99.90
15355;DHT22;7777;52.254;9.618;2022-12-29T14:48:35;11.20;99.90
15355;DHT22;7777;52.254;9.618;2022-12-29T14:51:17;11.20;99.90
15355;DHT22;7777;52.254;9.618;2022-12-29T14:53:51;11.20;99.90
15355;DHT22;7777;52.254;9.618;2022-12-29T14:56:19;11.20;99.90
15355;DHT22;7777;52.254;9.618;2022-12-29T14:59:02;11.20;99.90
15355;DHT22;7777;52.254;9.618;2022-12-29T15:04:04;11.10;99.90
15355;DHT22;7777;52.254;9.618;2022-12-29T15:06:39;11.10;99.90
15355;DHT22;7777;52.254;9.618;2022-12-29T15:12:32;11.10;99.90
15355;DHT22;7777;52.254;9.618;2022-12-29T15:14:59;11.00;99.90
15355;DHT22;7777;52.254;9.618;2022-12-29T15:17:34;11.00;99.90
15355;DHT22;7777;52.254;9.618;2022-12-29T15:20:27;10.90;99.90
15355;DHT22;7777;52.254;9.618;2022-12-29T15:22:56;11.00;99.90
15355;DHT22;7777;52.254;9.618;2022-12-29T15:25:27;11.00;99.90
15355;DHT22;7777;52.254;9.618;2022-12-29T15:28:04;11.00;99.90
15355;DHT22;7777;52.254;9.618;2022-12-29T15:30:32;11.00;99.90
15355;DHT22;7777;52.254;9.618;2022-12-29T15:32:58;11.00;99.90
15355;DHT22;7777;52.254;9.618;2022-12-29T15:35:35;11.00;99.90
15355;DHT22;7777;52.254;9.618;2022-12-29T15:38:27;10.90;99.90
15355;DHT22;7777;52.254;9.618;2022-12-29T15:41:31;10.90;99.90
15355;DHT22;7777;52.254;9.618;2022-12-29T15:44:06;10.90;99.90
15355;DHT22;7777;52.254;9.618;2022-12-29T15:50:24;10.80;99.90
15355;DHT22;7777;52.254;9.618;2022-12-29T15:53:02;10.80;99.90
15355;DHT22;7777;52.254;9.618;2022-12-29T15:55:32;10.80;99.90
15355;DHT22;7777;52.254;9.618;2022-12-29T15:58:03;10.70;99.90
15355;DHT22;7777;52.254;9.618;2022-12-29T16:00:36;10.70;99.90
15355;DHT22;7777;52.254;9.618;2022-12-29T16:03:05;10.70;99.90
15355;DHT22;7777;52.254;9.618;2022-12-29T16:05:36;10.70;99.90
15355;DHT22;7777;52.254;9.618;2022-12-29T16:08:33;10.70;99.90
15355;DHT22;7777;52.254;9.618;2022-12-29T16:11:20;10.70;99.90
15355;DHT22;7777;52.254;9.618;2022-12-29T16:13:55;10.70;99.90
15355;DHT22;7777;52.254;9.618;2022-12-29T16:16:35;10.70;99.90
15355;DHT22;7777;52.254;9.618;2022-12-29T16:21:58;10.60;99.90
15355;DHT22;7777;52.254;9.618;2022-12-29T16:24:26;10.70;99.90
15355;DHT22;7777;52.254;9.618;2022-12-29T16:29:52;10.70;99.90
15355;DHT22;7777;52.254;9.618;2022-12-29T16:35:20;10.60;99.90
15355;DHT22;7777;52.254;9.618;2022-12-29T16:38:06;10.60;99.90
15355;DHT22;7777;52.254;9.618;2022-12-29T16:40:55;10.60;99.90
15355;DHT22;7777;52.254;9.618;2022-12-29T16:43:29;10.60;99.90
15355;DHT22;7777;52.254;9.618;2022-12-29T16:48:27;10.50;99.90
15355;DHT22;7777;52.254;9.618;2022-12-29T16:51:11;10.50;99.90
15355;DHT22;7777;52.254;9.618;2022-12-29T16:53:49;10.50;99.90
15355;DHT22;7777;52.254;9.618;2022-12-29T16:56:20;10.50;99.90
15355;DHT22;7777;52.254;9.618;2022-12-29T16:59:04;10.50;99.90
15355;DHT22;7777;52.254;9.618;2022-12-29T17:01:35;10.50;99.90
15355;DHT22;7777;52.254;9.618;2022-12-29T17:04:06;10.50;99.90
15355;DHT22;7777;52.254;9.618;2022-12-29T17:06:36;10.50;99.90
15355;DHT22;7777;52.254;9.618;2022-12-29T17:09:02;10.50;99.90
15355;DHT22;7777;52.254;9.618;2022-12-29T17:11:35;10.50;99.90
15355;DHT22;7777;52.254;9.618;2022-12-29T17:16:52;10.50;99.90
15355;DHT22;7777;52.254;9.618;2022-12-29T17:19:21;10.50;99.90
15355;DHT22;7777;52.254;9.618;2022-12-29T17:21:51;10.40;99.90
15355;DHT22;7777;52.254;9.618;2022-12-29T17:24:18;10.50;99.90
15355;DHT22;7777;52.254;9.618;2022-12-29T17:26:51;10.40;99.90
15355;DHT22;7777;52.254;9.618;2022-12-29T17:29:42;10.40;99.90
15355;DHT22;7777;52.254;9.618;2022-12-29T17:32:12;10.40;99.90
15355;DHT22;7777;52.254;9.618;2022-12-29T17:34:39;10.40;99.90
15355;DHT22;7777;52.254;9.618;2022-12-29T17:40:00;10.30;99.90
15355;DHT22;7777;52.254;9.618;2022-12-29T17:42:26;10.30;99.90
15355;DHT22;7777;52.254;9.618;2022-12-29T17:44:52;10.30;99.90
15355;DHT22;7777;52.254;9.618;2022-12-29T17:47:18;10.20;99.90
15355;DHT22;7777;52.254;9.618;2022-12-29T17:49:45;10.30;99.90
15355;DHT22;7777;52.254;9.618;2022-12-29T17:52:14;10.20;99.90
15355;DHT22;7777;52.254;9.618;2022-12-29T17:54:50;10.20;99.90
15355;DHT22;7777;52.254;9.618;2022-12-29T17:57:18;10.20;99.90
15355;DHT22;7777;52.254;9.618;2022-12-29T17:59:44;10.20;99.90
15355;DHT22;7777;52.254;9.618;2022-12-29T18:02:29;10.20;99.90
15355;DHT22;7777;52.254;9.618;2022-12-29T18:04:59;10.20;99.90
15355;DHT22;7777;52.254;9.618;2022-12-29T18:07:27;10.20;99.90
15355;DHT22;7777;52.254;9.618;2022-12-29T18:09:54;10.20;99.90
15355;DHT22;7777;52.254;9.618;2022-12-29T18:12:30;10.20;99.90
15355;DHT22;7777;52.254;9.618;2022-12-29T18:15:00;10.20;99.90